sensor_id;sensor_type;location;lat;lon;timestamp;pressure;altitude;pressure_sealevel;temperature;humidity
71476;BME280;59286;59.274;17.974;2023-01-09T00:01:30;99693.84;;;3.48;100.00
71476;BME280;59286;59.274;17.974;2023-01-09T00:03:56;99692.78;;;3.49;100.00
71476;BME280;59286;59.274;17.974;2023-01-09T00:06:21;99683.25;;;3.45;100.00
71476;BME280;59286;59.274;17.974;2023-01-09T00:08:47;99682.47;;;3.44;100.00
71476;BME280;59286;59.274;17.974;2023-01-09T00:11:12;99687.34;;;3.51;100.00
71476;BME280;59286;59.274;17.974;2023-01-09T00:13:37;99679.06;;;3.49;100.00
71476;BME280;59286;59.274;17.974;2023-01-09T00:16:07;99682.16;;;3.51;100.00
71476;BME280;59286;59.274;17.974;2023-01-09T00:18:33;99666.44;;;3.42;100.00
71476;BME280;59286;59.274;17.974;2023-01-09T00:21:01;99678.53;;;3.52;100.00
71476;BME280;59286;59.274;17.974;2023-01-09T00:23:26;99677.47;;;3.53;100.00
71476;BME280;59286;59.274;17.974;2023-01-09T00:26:13;99655.09;;;3.33;100.00
71476;BME280;59286;59.274;17.974;2023-01-09T00:28:39;99680.06;;;3.53;100.00
71476;BME280;59286;59.274;17.974;2023-01-09T00:31:06;99675.16;;;3.51;100.00
71476;BME280;59286;59.274;17.974;2023-01-09T00:33:34;99680.06;;;3.53;100.00
71476;BME280;59286;59.274;17.974;2023-01-09T00:36:00;99675.91;;;3.57;100.00
71476;BME280;59286;59.274;17.974;2023-01-09T00:38:25;99681.06;;;3.57;100.00
71476;BME280;59286;59.274;17.974;2023-01-09T00:40:52;99672.81;;;3.55;100.00
71476;BME280;59286;59.274;17.974;2023-01-09T00:43:19;99674.09;;;3.57;100.00
71476;BME280;59286;59.274;17.974;2023-01-09T00:45:44;99664.50;;;3.58;100.00
71476;BME280;59286;59.274;17.974;2023-01-09T00:48:13;99651.84;;;3.51;100.00
71476;BME280;59286;59.274;17.974;2023-01-09T00:50:39;99656.47;;;3.54;100.00
71476;BME280;59286;59.274;17.974;2023-01-09T00:53:09;99657.25;;;3.55;100.00
71476;BME280;59286;59.274;17.974;2023-01-09T00:55:37;99656.47;;;3.54;100.00
71476;BME280;59286;59.274;17.974;2023-01-09T00:58:02;99638.94;;;3.46;100.00
71476;BME280;59286;59.274;17.974;2023-01-09T01:00:28;99649.81;;;3.48;100.00
71476;BME280;59286;59.274;17.974;2023-01-09T01:02:54;99660.59;;;3.60;100.00
71476;BME280;59286;59.274;17.974;2023-01-09T01:05:19;99660.59;;;3.60;100.00
71476;BME280;59286;59.274;17.974;2023-01-09T01:08:09;99663.41;;;3.64;100.00
71476;BME280;59286;59.274;17.974;2023-01-09T01:10:34;99657.50;;;3.58;100.00
71476;BME280;59286;59.274;17.974;2023-01-09T01:13:00;99665.75;;;3.60;100.00
71476;BME280;59286;59.274;17.974;2023-01-09T01:15:25;99665.53;;;3.57;100.00
71476;BME280;59286;59.274;17.974;2023-01-09T01:17:53;99661.91;;;3.58;100.00
71476;BME280;59286;59.274;17.974;2023-01-09T01:20:18;99669.09;;;3.66;100.00
71476;BME280;59286;59.274;17.974;2023-01-09T01:22:44;99662.16;;;3.61;100.00
71476;BME280;59286;59.274;17.974;2023-01-09T01:25:11;99674.50;;;3.69;100.00
71476;BME280;59286;59.274;17.974;2023-01-09T01:27:38;99672.69;;;3.70;100.00
71476;BME280;59286;59.274;17.974;2023-01-09T01:30:05;99666.72;;;3.69;100.00
71476;BME280;59286;59.274;17.974;2023-01-09T01:32:31;99670.94;;;3.65;100.00
71476;BME280;59286;59.274;17.974;2023-01-09T01:34:56;99674.25;;;3.71;100.00
71476;BME280;59286;59.274;17.974;2023-01-09T01:37:22;99658.22;;;3.64;100.00
71476;BME280;59286;59.274;17.974;2023-01-09T01:39:48;99670.31;;;3.73;100.00
71476;BME280;59286;59.274;17.974;2023-01-09T01:42:13;99674.75;;;3.73;100.00
71476;BME280;59286;59.274;17.974;2023-01-09T01:50:55;99671.38;;;3.72;100.00
71476;BME280;59286;59.274;17.974;2023-01-09T01:53:25;99671.88;;;3.74;100.00
71476;BME280;59286;59.274;17.974;2023-01-09T01:56:02;99670.31;;;3.73;100.00
71476;BME280;59286;59.274;17.974;2023-01-09T01:58:29;99677.06;;;3.74;100.00
71476;BME280;59286;59.274;17.974;2023-01-09T02:00:54;99662.03;;;3.71;100.00
71476;BME280;59286;59.274;17.974;2023-01-09T02:03:24;99669.03;;;3.76;100.00
71476;BME280;59286;59.274;17.974;2023-01-09T02:05:50;99653.25;;;3.72;100.00
71476;BME280;59286;59.274;17.974;2023-01-09T02:08:15;99652.63;;;3.80;100.00
71476;BME280;59286;59.274;17.974;2023-01-09T02:10:41;99652.63;;;3.80;100.00
71476;BME280;59286;59.274;17.974;2023-01-09T02:13:08;99650.59;;;3.77;100.00
71476;BME280;59286;59.274;17.974;2023-01-09T02:15:53;99645.97;;;3.74;100.00
71476;BME280;59286;59.274;17.974;2023-01-09T02:21:12;99658.88;;;3.79;100.00
71476;BME280;59286;59.274;17.974;2023-01-09T02:30:24;99651.59;;;3.81;100.00
71476;BME280;59286;59.274;17.974;2023-01-09T02:33:56;99643.56;;;3.83;100.00
71476;BME280;59286;59.274;17.974;2023-01-09T02:36:29;99644.34;;;3.83;100.00
71476;BME280;59286;59.274;17.974;2023-01-09T02:39:25;99645.34;;;3.87;100.00
71476;BME280;59286;59.274;17.974;2023-01-09T02:42:17;99639.16;;;3.83;100.00
71476;BME280;59286;59.274;17.974;2023-01-09T02:44:43;99641.63;;;3.93;100.00
71476;BME280;59286;59.274;17.974;2023-01-09T03:02:52;99636.50;;;3.88;100.00
71476;BME280;59286;59.274;17.974;2023-01-09T03:05:32;99656.59;;;4.02;100.00
71476;BME280;59286;59.274;17.974;2023-01-09T03:08:02;99656.59;;;4.02;100.00
71476;BME280;59286;59.274;17.974;2023-01-09T03:10:54;99660.47;;;4.04;100.00
71476;BME280;59286;59.274;17.974;2023-01-09T03:13:23;99659.69;;;4.04;100.00
71476;BME280;59286;59.274;17.974;2023-01-09T03:15:52;99663.28;;;4.08;100.00
71476;BME280;59286;59.274;17.974;2023-01-09T03:18:21;99670.50;;;4.11;100.00
71476;BME280;59286;59.274;17.974;2023-01-09T03:20:49;99661.72;;;4.12;100.00
71476;BME280;59286;59.274;17.974;2023-01-09T03:23:15;99655.56;;;4.03;100.00
71476;BME280;59286;59.274;17.974;2023-01-09T03:25:41;99646.78;;;3.99;100.00
71476;BME280;59286;59.274;17.974;2023-01-09T03:28:08;99657.59;;;4.06;100.00
71476;BME280;59286;59.274;17.974;2023-01-09T03:30:37;99657.88;;;4.04;100.00
71476;BME280;59286;59.274;17.974;2023-01-09T03:33:02;99656.59;;;4.02;100.00
71476;BME280;59286;59.274;17.974;2023-01-09T03:35:28;99652.97;;;4.03;100.00
71476;BME280;59286;59.274;17.974;2023-01-09T03:37:53;99662.78;;;4.06;100.00
71476;BME280;59286;59.274;17.974;2023-01-09T03:40:19;99665.88;;;4.08;100.00
71476;BME280;59286;59.274;17.974;2023-01-09T03:42:45;99652.50;;;3.95;100.00
71476;BME280;59286;59.274;17.974;2023-01-09T03:45:11;99658.59;;;4.10;100.00
71476;BME280;59286;59.274;17.974;2023-01-09T03:47:37;99648.25;;;4.10;100.00
71476;BME280;59286;59.274;17.974;2023-01-09T03:50:02;99666.06;;;4.16;100.00
71476;BME280;59286;59.274;17.974;2023-01-09T03:52:28;99651.84;;;4.14;100.00
71476;BME280;59286;59.274;17.974;2023-01-09T03:54:53;99656.97;;;4.19;100.00
71476;BME280;59286;59.274;17.974;2023-01-09T03:57:19;99655.69;;;4.16;100.00
71476;BME280;59286;59.274;17.974;2023-01-09T03:59:44;99664.25;;;4.17;100.00
71476;BME280;59286;59.274;17.974;2023-01-09T04:02:09;99659.06;;;4.17;100.00
71476;BME280;59286;59.274;17.974;2023-01-09T04:04:35;99660.16;;;4.11;100.00
71476;BME280;59286;59.274;17.974;2023-01-09T04:07:00;99659.88;;;4.12;100.00
71476;BME280;59286;59.274;17.974;2023-01-09T04:09:25;99653.94;;;4.07;100.00
71476;BME280;59286;59.274;17.974;2023-01-09T04:11:51;99666.34;;;4.15;100.00
71476;BME280;59286;59.274;17.974;2023-01-09T04:14:16;99665.56;;;4.14;100.00
71476;BME280;59286;59.274;17.974;2023-01-09T04:16:41;99676.66;;;4.20;100.00
71476;BME280;59286;59.274;17.974;2023-01-09T04:19:07;99673.84;;;4.16;100.00
71476;BME280;59286;59.274;17.974;2023-01-09T04:21:32;99667.91;;;4.16;100.00
71476;BME280;59286;59.274;17.974;2023-01-09T04:23:58;99662.50;;;4.07;100.00
71476;BME280;59286;59.274;17.974;2023-01-09T04:26:23;99665.59;;;4.09;100.00
71476;BME280;59286;59.274;17.974;2023-01-09T04:28:49;99661.25;;;4.05;100.00
71476;BME280;59286;59.274;17.974;2023-01-09T04:31:14;99652.97;;;4.03;100.00
71476;BME280;59286;59.274;17.974;2023-01-09T04:33:39;99661.25;;;4.05;100.00
71476;BME280;59286;59.274;17.974;2023-01-09T04:36:05;99647.00;;;4.02;100.00
71476;BME280;59286;59.274;17.974;2023-01-09T04:38:31;99660.69;;;4.08;100.00
71476;BME280;59286;59.274;17.974;2023-01-09T04:40:56;99667.63;;;4.12;100.00
71476;BME280;59286;59.274;17.974;2023-01-09T04:43:22;99663.28;;;4.08;100.00
71476;BME280;59286;59.274;17.974;2023-01-09T04:45:47;99643.63;;;4.02;100.00
71476;BME280;59286;59.274;17.974;2023-01-09T04:48:12;99661.72;;;4.12;100.00
71476;BME280;59286;59.274;17.974;2023-01-09T04:50:38;99665.56;;;4.14;100.00
71476;BME280;59286;59.274;17.974;2023-01-09T04:53:03;99669.22;;;4.13;100.00
71476;BME280;59286;59.274;17.974;2023-01-09T04:55:29;99659.63;;;4.14;100.00
71476;BME280;59286;59.274;17.974;2023-01-09T04:57:55;99650.56;;;4.11;100.00
71476;BME280;59286;59.274;17.974;2023-01-09T05:00:20;99631.75;;;4.01;100.00
71476;BME280;59286;59.274;17.974;2023-01-09T05:02:45;99656.03;;;4.10;100.00
71476;BME280;59286;59.274;17.974;2023-01-09T05:05:11;99667.91;;;4.16;100.00
71476;BME280;59286;59.274;17.974;2023-01-09T05:07:36;99668.16;;;4.14;100.00
71476;BME280;59286;59.274;17.974;2023-01-09T05:10:03;99669.66;;;4.20;100.00
71476;BME280;59286;59.274;17.974;2023-01-09T05:12:28;99668.13;;;4.19;100.00
71476;BME280;59286;59.274;17.974;2023-01-09T05:14:54;99659.41;;;4.10;100.00
71476;BME280;59286;59.274;17.974;2023-01-09T05:17:19;99669.38;;;4.22;100.00
71476;BME280;59286;59.274;17.974;2023-01-09T05:19:44;99672.25;;;4.20;100.00
71476;BME280;59286;59.274;17.974;2023-01-09T05:22:11;99658.06;;;4.13;100.00
71476;BME280;59286;59.274;17.974;2023-01-09T05:24:37;99675.63;;;4.21;100.00
71476;BME280;59286;59.274;17.974;2023-01-09T05:27:03;99671.97;;;4.22;100.00
71476;BME280;59286;59.274;17.974;2023-01-09T05:29:28;99686.22;;;4.24;100.00
71476;BME280;59286;59.274;17.974;2023-01-09T05:31:53;99686.66;;;4.31;100.00
71476;BME280;59286;59.274;17.974;2023-01-09T05:34:19;99684.28;;;4.35;100.00
71476;BME280;59286;59.274;17.974;2023-01-09T05:36:45;99687.09;;;4.38;100.00
71476;BME280;59286;59.274;17.974;2023-01-09T05:39:10;99680.94;;;4.34;100.00
71476;BME280;59286;59.274;17.974;2023-01-09T05:41:36;99681.16;;;4.38;100.00
71476;BME280;59286;59.274;17.974;2023-01-09T05:44:02;99682.47;;;4.35;100.00
71476;BME280;59286;59.274;17.974;2023-01-09T05:46:29;99690.19;;;4.40;100.00
71476;BME280;59286;59.274;17.974;2023-01-09T05:48:54;99654.88;;;4.21;100.00
71476;BME280;59286;59.274;17.974;2023-01-09T05:51:19;99672.88;;;4.36;100.00
71476;BME280;59286;59.274;17.974;2023-01-09T05:53:45;99686.00;;;4.44;100.00
71476;BME280;59286;59.274;17.974;2023-01-09T05:56:10;99661.34;;;4.23;100.00
71476;BME280;59286;59.274;17.974;2023-01-09T05:58:35;99675.97;;;4.38;100.00
71476;BME280;59286;59.274;17.974;2023-01-09T06:01:00;99684.28;;;4.35;100.00
71476;BME280;59286;59.274;17.974;2023-01-09T06:03:26;99660.84;;;4.21;100.00
71476;BME280;59286;59.274;17.974;2023-01-09T06:05:51;99695.16;;;4.37;100.00
71476;BME280;59286;59.274;17.974;2023-01-09T06:08:16;99679.38;;;4.33;100.00
71476;BME280;59286;59.274;17.974;2023-01-09T06:10:42;99697.97;;;4.40;100.00
71476;BME280;59286;59.274;17.974;2023-01-09T06:13:09;99677.38;;;4.25;100.00
71476;BME280;59286;59.274;17.974;2023-01-09T06:15:34;99691.31;;;4.34;100.00
71476;BME280;59286;59.274;17.974;2023-01-09T06:17:59;99681.69;;;4.35;100.00
71476;BME280;59286;59.274;17.974;2023-01-09T06:20:25;99689.75;;;4.33;100.00
71476;BME280;59286;59.274;17.974;2023-01-09T06:22:50;99681.25;;;4.28;100.00
71476;BME280;59286;59.274;17.974;2023-01-09T06:25:18;99680.25;;;4.24;100.00
71476;BME280;59286;59.274;17.974;2023-01-09T06:27:44;99684.69;;;4.23;100.00
71476;BME280;59286;59.274;17.974;2023-01-09T06:30:09;99665.31;;;4.11;100.00
71476;BME280;59286;59.274;17.974;2023-01-09T06:32:35;99686.56;;;4.18;100.00
71476;BME280;59286;59.274;17.974;2023-01-09T06:35:00;99700.72;;;4.25;100.00
71476;BME280;59286;59.274;17.974;2023-01-09T06:37:26;99651.97;;;3.99;100.00
71476;BME280;59286;59.274;17.974;2023-01-09T06:39:52;99664.56;;;4.10;100.00
71476;BME280;59286;59.274;17.974;2023-01-09T06:42:19;99697.25;;;4.35;100.00
71476;BME280;59286;59.274;17.974;2023-01-09T06:44:44;99680.75;;;4.26;100.00
71476;BME280;59286;59.274;17.974;2023-01-09T06:47:09;99690.53;;;4.34;100.00
71476;BME280;59286;59.274;17.974;2023-01-09T06:49:35;99691.84;;;4.31;100.00
71476;BME280;59286;59.274;17.974;2023-01-09T06:52:00;99693.94;;;4.29;100.00
71476;BME280;59286;59.274;17.974;2023-01-09T06:54:29;99702.78;;;4.28;100.00
71476;BME280;59286;59.274;17.974;2023-01-09T06:56:55;99692.94;;;4.25;100.00
71476;BME280;59286;59.274;17.974;2023-01-09T06:59:20;99705.66;;;4.27;100.00
71476;BME280;59286;59.274;17.974;2023-01-09T07:01:45;99699.75;;;4.21;100.00
71476;BME280;59286;59.274;17.974;2023-01-09T07:04:11;99719.13;;;4.29;100.00
71476;BME280;59286;59.274;17.974;2023-01-09T07:06:37;99720.16;;;4.28;100.00
71476;BME280;59286;59.274;17.974;2023-01-09T07:09:02;99715.75;;;4.28;100.00
71476;BME280;59286;59.274;17.974;2023-01-09T07:11:30;99709.31;;;4.21;100.00
71476;BME280;59286;59.274;17.974;2023-01-09T07:13:55;99725.78;;;4.35;100.00
71476;BME280;59286;59.274;17.974;2023-01-09T07:16:21;99711.06;;;4.30;100.00
71476;BME280;59286;59.274;17.974;2023-01-09T07:18:46;99739.47;;;4.40;100.00
71476;BME280;59286;59.274;17.974;2023-01-09T07:21:11;99738.22;;;4.38;100.00
71476;BME280;59286;59.274;17.974;2023-01-09T07:23:37;99740.31;;;4.36;100.00
71476;BME280;59286;59.274;17.974;2023-01-09T07:26:02;99745.50;;;4.36;100.00
71476;BME280;59286;59.274;17.974;2023-01-09T07:28:27;99744.50;;;4.32;100.00
71476;BME280;59286;59.274;17.974;2023-01-09T07:30:53;99748.63;;;4.33;100.00
71476;BME280;59286;59.274;17.974;2023-01-09T07:33:19;99756.88;;;4.40;100.00
71476;BME280;59286;59.274;17.974;2023-01-09T07:35:44;99752.78;;;4.34;100.00
71476;BME280;59286;59.274;17.974;2023-01-09T07:38:09;99745.06;;;4.29;100.00
71476;BME280;59286;59.274;17.974;2023-01-09T07:40:35;99748.63;;;4.33;100.00
71476;BME280;59286;59.274;17.974;2023-01-09T07:43:00;99753.78;;;4.38;100.00
71476;BME280;59286;59.274;17.974;2023-01-09T07:45:26;99758.97;;;4.38;100.00
71476;BME280;59286;59.274;17.974;2023-01-09T07:47:51;99750.19;;;4.34;100.00
71476;BME280;59286;59.274;17.974;2023-01-09T07:50:17;99762.81;;;4.40;100.00
71476;BME280;59286;59.274;17.974;2023-01-09T07:52:44;99765.97;;;4.37;100.00
71476;BME280;59286;59.274;17.974;2023-01-09T07:55:10;99743.59;;;4.18;100.00
71476;BME280;59286;59.274;17.974;2023-01-09T07:57:35;99775.06;;;4.35;100.00
71476;BME280;59286;59.274;17.974;2023-01-09T08:00:01;99775.69;;;4.27;100.00
71476;BME280;59286;59.274;17.974;2023-01-09T08:02:28;99771.97;;;4.33;100.00
71476;BME280;59286;59.274;17.974;2023-01-09T08:04:53;99770.44;;;4.32;100.00
71476;BME280;59286;59.274;17.974;2023-01-09T08:07:18;99771.75;;;4.29;100.00
71476;BME280;59286;59.274;17.974;2023-01-09T08:09:44;99768.66;;;4.27;100.00
71476;BME280;59286;59.274;17.974;2023-01-09T08:12:12;99765.53;;;4.25;100.00
71476;BME280;59286;59.274;17.974;2023-01-09T08:14:37;99763.22;;;4.29;100.00
71476;BME280;59286;59.274;17.974;2023-01-09T08:17:02;99762.72;;;4.27;100.00
71476;BME280;59286;59.274;17.974;2023-01-09T08:19:28;99764.25;;;4.28;100.00
71476;BME280;59286;59.274;17.974;2023-01-09T08:21:53;99744.91;;;4.15;100.00
71476;BME280;59286;59.274;17.974;2023-01-09T08:24:18;99756.28;;;4.19;100.00
71476;BME280;59286;59.274;17.974;2023-01-09T08:26:44;99770.75;;;4.25;100.00
71476;BME280;59286;59.274;17.974;2023-01-09T08:29:09;99771.53;;;4.26;100.00
71476;BME280;59286;59.274;17.974;2023-01-09T08:31:35;99772.84;;;4.23;100.00
71476;BME280;59286;59.274;17.974;2023-01-09T08:34:00;99768.19;;;4.20;100.00
71476;BME280;59286;59.274;17.974;2023-01-09T08:36:26;99782.94;;;4.25;100.00
71476;BME280;59286;59.274;17.974;2023-01-09T08:38:51;99786.56;;;4.24;100.00
71476;BME280;59286;59.274;17.974;2023-01-09T08:41:17;99790.97;;;4.28;100.00
71476;BME280;59286;59.274;17.974;2023-01-09T08:44:00;99788.09;;;4.30;100.00
71476;BME280;59286;59.274;17.974;2023-01-09T08:46:44;99782.91;;;4.30;100.00
71476;BME280;59286;59.274;17.974;2023-01-09T08:49:28;99782.13;;;4.29;100.00
71476;BME280;59286;59.274;17.974;2023-01-09T08:51:54;99788.03;;;4.35;100.00
71476;BME280;59286;59.274;17.974;2023-01-09T08:54:19;99786.72;;;4.37;100.00
71476;BME280;59286;59.274;17.974;2023-01-09T08:56:44;99781.81;;;4.36;100.00
71476;BME280;59286;59.274;17.974;2023-01-09T08:59:10;99777.66;;;4.35;100.00
71476;BME280;59286;59.274;17.974;2023-01-09T09:01:35;99791.88;;;4.42;100.00
71476;BME280;59286;59.274;17.974;2023-01-09T09:04:01;99790.56;;;4.45;100.00
71476;BME280;59286;59.274;17.974;2023-01-09T09:06:26;99793.44;;;4.43;100.00
71476;BME280;59286;59.274;17.974;2023-01-09T09:08:52;99778.94;;;4.37;100.00
71476;BME280;59286;59.274;17.974;2023-01-09T09:11:17;99797.78;;;4.48;100.00
71476;BME280;59286;59.274;17.974;2023-01-09T09:13:42;99793.88;;;4.50;100.00
71476;BME280;59286;59.274;17.974;2023-01-09T09:16:08;99794.38;;;4.52;100.00
71476;BME280;59286;59.274;17.974;2023-01-09T09:18:33;99792.06;;;4.51;100.00
71476;BME280;59286;59.274;17.974;2023-01-09T09:20:58;99793.06;;;4.55;100.00
71476;BME280;59286;59.274;17.974;2023-01-09T09:23:24;99769.25;;;4.48;100.00
71476;BME280;59286;59.274;17.974;2023-01-09T09:25:49;99791.41;;;4.64;100.00
71476;BME280;59286;59.274;17.974;2023-01-09T09:28:14;99775.38;;;4.57;100.00
71476;BME280;59286;59.274;17.974;2023-01-09T09:30:40;99789.03;;;4.67;100.00
71476;BME280;59286;59.274;17.974;2023-01-09T09:33:05;99787.97;;;4.68;100.00
71476;BME280;59286;59.274;17.974;2023-01-09T09:35:31;99785.16;;;4.65;100.00
71476;BME280;59286;59.274;17.974;2023-01-09T09:37:59;99774.63;;;4.56;100.00
71476;BME280;59286;59.274;17.974;2023-01-09T09:40:53;99790.63;;;4.63;100.00
71476;BME280;59286;59.274;17.974;2023-01-09T09:46:48;99791.44;;;4.59;100.00
71476;BME280;59286;59.274;17.974;2023-01-09T09:49:27;99792.50;;;4.58;100.00
71476;BME280;59286;59.274;17.974;2023-01-09T09:52:03;99787.75;;;4.65;100.00
71476;BME280;59286;59.274;17.974;2023-01-09T09:54:38;99779.31;;;4.54;100.00
71476;BME280;59286;59.274;17.974;2023-01-09T09:57:05;99791.44;;;4.59;100.00
71476;BME280;59286;59.274;17.974;2023-01-09T09:59:37;99787.38;;;4.53;100.00
71476;BME280;59286;59.274;17.974;2023-01-09T10:04:35;99799.28;;;4.54;100.00
71476;BME280;59286;59.274;17.974;2023-01-09T10:07:13;99800.28;;;4.58;100.00
71476;BME280;59286;59.274;17.974;2023-01-09T10:09:53;99802.09;;;4.57;100.00
71476;BME280;59286;59.274;17.974;2023-01-09T10:14:55;99796.97;;;4.52;100.00
71476;BME280;59286;59.274;17.974;2023-01-09T10:20:34;99782.34;;;4.61;100.00
71476;BME280;59286;59.274;17.974;2023-01-09T10:23:20;99770.69;;;4.59;100.00
71476;BME280;59286;59.274;17.974;2023-01-09T10:26:14;99778.44;;;4.64;100.00
71476;BME280;59286;59.274;17.974;2023-01-09T10:29:07;99785.66;;;4.67;100.00
71476;BME280;59286;59.274;17.974;2023-01-09T10:32:06;99792.44;;;4.68;100.00
71476;BME280;59286;59.274;17.974;2023-01-09T10:37:47;99764.41;;;4.65;100.00
71476;BME280;59286;59.274;17.974;2023-01-09T10:40:28;99774.47;;;4.71;100.00
71476;BME280;59286;59.274;17.974;2023-01-09T10:43:00;99772.13;;;4.70;100.00
71476;BME280;59286;59.274;17.974;2023-01-09T10:45:39;99777.59;;;4.68;100.00
71476;BME280;59286;59.274;17.974;2023-01-09T10:48:19;99748.44;;;4.53;100.00
71476;BME280;59286;59.274;17.974;2023-01-09T10:50:49;99787.16;;;4.73;100.00
71476;BME280;59286;59.274;17.974;2023-01-09T10:53:20;99784.56;;;4.73;100.00
71476;BME280;59286;59.274;17.974;2023-01-09T10:55:47;99772.25;;;4.60;100.00
71476;BME280;59286;59.274;17.974;2023-01-09T10:58:15;99777.31;;;4.70;100.00
71476;BME280;59286;59.274;17.974;2023-01-09T11:00:41;99781.19;;;4.72;100.00
71476;BME280;59286;59.274;17.974;2023-01-09T11:03:17;99776.28;;;4.71;100.00
71476;BME280;59286;59.274;17.974;2023-01-09T11:05:43;99786.66;;;4.71;100.00
71476;BME280;59286;59.274;17.974;2023-01-09T11:08:37;99763.88;;;4.68;100.00
71476;BME280;59286;59.274;17.974;2023-01-09T11:11:07;99773.63;;;4.76;100.00
71476;BME280;59286;59.274;17.974;2023-01-09T11:13:35;99749.69;;;4.60;100.00
71476;BME280;59286;59.274;17.974;2023-01-09T11:18:59;99786.66;;;4.71;100.00
71476;BME280;59286;59.274;17.974;2023-01-09T11:21:38;99780.25;;;4.63;100.00
71476;BME280;59286;59.274;17.974;2023-01-09T11:26:47;99780.09;;;4.55;100.00
71476;BME280;59286;59.274;17.974;2023-01-09T11:29:16;99787.81;;;4.60;100.00
71476;BME280;59286;59.274;17.974;2023-01-09T11:31:52;99794.53;;;4.61;100.00
71476;BME280;59286;59.274;17.974;2023-01-09T11:34:20;99770.94;;;4.34;100.00
71476;BME280;59286;59.274;17.974;2023-01-09T11:36:47;99753.09;;;4.27;100.00
71476;BME280;59286;59.274;17.974;2023-01-09T11:39:28;99788.13;;;4.53;100.00
71476;BME280;59286;59.274;17.974;2023-01-09T11:41:57;99784.81;;;4.48;100.00
71476;BME280;59286;59.274;17.974;2023-01-09T11:44:23;99788.97;;;4.49;100.00
71476;BME280;59286;59.274;17.974;2023-01-09T11:46:49;99779.72;;;4.38;100.00
71476;BME280;59286;59.274;17.974;2023-01-09T11:51:40;99799.63;;;4.47;100.00
71476;BME280;59286;59.274;17.974;2023-01-09T11:54:26;99785.88;;;4.47;100.00
71476;BME280;59286;59.274;17.974;2023-01-09T11:56:53;99775.00;;;4.45;100.00
71476;BME280;59286;59.274;17.974;2023-01-09T11:59:29;99785.81;;;4.52;100.00
71476;BME280;59286;59.274;17.974;2023-01-09T12:02:11;99773.19;;;4.45;100.00
71476;BME280;59286;59.274;17.974;2023-01-09T12:04:55;99781.97;;;4.49;100.00
71476;BME280;59286;59.274;17.974;2023-01-09T12:35:23;99768.06;;;4.64;100.00
71476;BME280;59286;59.274;17.974;2023-01-09T12:40:37;99770.16;;;4.62;100.00
71476;BME280;59286;59.274;17.974;2023-01-09T12:46:19;99764.41;;;4.65;100.00
71476;BME280;59286;59.274;17.974;2023-01-09T12:49:17;99770.19;;;4.57;100.00
71476;BME280;59286;59.274;17.974;2023-01-09T12:52:00;99774.25;;;4.68;100.00
71476;BME280;59286;59.274;17.974;2023-01-09T12:54:47;99780.97;;;4.69;100.00
71476;BME280;59286;59.274;17.974;2023-01-09T12:57:26;99774.78;;;4.65;100.00
71476;BME280;59286;59.274;17.974;2023-01-09T13:00:03;99783.06;;;4.67;100.00
71476;BME280;59286;59.274;17.974;2023-01-09T13:05:15;99784.16;;;4.61;100.00
71476;BME280;59286;59.274;17.974;2023-01-09T13:07:50;99771.59;;;4.49;100.00
71476;BME280;59286;59.274;17.974;2023-01-09T13:10:22;99793.50;;;4.62;100.00
71476;BME280;59286;59.274;17.974;2023-01-09T13:12:50;99795.31;;;4.61;100.00
71476;BME280;59286;59.274;17.974;2023-01-09T13:16:03;99797.66;;;4.63;100.00
71476;BME280;59286;59.274;17.974;2023-01-09T13:18:26;99801.31;;;4.62;100.00
71476;BME280;59286;59.274;17.974;2023-01-09T13:20:54;99791.44;;;4.59;100.00
71476;BME280;59286;59.274;17.974;2023-01-09T13:23:28;99787.09;;;4.54;100.00
71476;BME280;59286;59.274;17.974;2023-01-09T13:25:57;99803.91;;;4.57;100.00
71476;BME280;59286;59.274;17.974;2023-01-09T13:28:33;99801.81;;;4.59;100.00
71476;BME280;59286;59.274;17.974;2023-01-09T13:33:54;99796.19;;;4.52;100.00
71476;BME280;59286;59.274;17.974;2023-01-09T13:36:25;99799.28;;;4.54;100.00
71476;BME280;59286;59.274;17.974;2023-01-09T13:38:53;99810.66;;;4.58;100.00
71476;BME280;59286;59.274;17.974;2023-01-09T13:41:20;99808.63;;;4.55;100.00
71476;BME280;59286;59.274;17.974;2023-01-09T13:46:45;99798.28;;;4.50;100.00
71476;BME280;59286;59.274;17.974;2023-01-09T13:57:29;99805.03;;;4.51;100.00
71476;BME280;59286;59.274;17.974;2023-01-09T14:07:49;99805.91;;;4.41;100.00
71476;BME280;59286;59.274;17.974;2023-01-09T14:10:24;99812.94;;;4.36;100.00
71476;BME280;59286;59.274;17.974;2023-01-09T14:12:52;99817.56;;;4.39;100.00
71476;BME280;59286;59.274;17.974;2023-01-09T14:18:03;99809.84;;;4.34;100.00
71476;BME280;59286;59.274;17.974;2023-01-09T14:20:37;99809.63;;;4.30;100.00
71476;BME280;59286;59.274;17.974;2023-01-09T14:23:04;99820.22;;;4.34;100.00
71476;BME280;59286;59.274;17.974;2023-01-09T14:25:31;99830.09;;;4.32;100.00
71476;BME280;59286;59.274;17.974;2023-01-09T14:30:35;99832.19;;;4.30;100.00
71476;BME280;59286;59.274;17.974;2023-01-09T14:36:34;99837.09;;;4.31;100.00
71476;BME280;59286;59.274;17.974;2023-01-09T14:39:00;99845.16;;;4.30;100.00
71476;BME280;59286;59.274;17.974;2023-01-09T14:41:35;99847.78;;;4.25;100.00
71476;BME280;59286;59.274;17.974;2023-01-09T14:49:58;99855.34;;;4.16;100.00
71476;BME280;59286;59.274;17.974;2023-01-09T14:52:30;99853.53;;;4.17;100.00
71476;BME280;59286;59.274;17.974;2023-01-09T14:55:00;99849.97;;;4.08;100.00
71476;BME280;59286;59.274;17.974;2023-01-09T14:57:31;99855.34;;;4.16;100.00
71476;BME280;59286;59.274;17.974;2023-01-09T15:02:38;99840.84;;;4.15;100.00
71476;BME280;59286;59.274;17.974;2023-01-09T15:05:20;99854.84;;;4.19;100.00
71476;BME280;59286;59.274;17.974;2023-01-09T15:08:04;99857.19;;;4.16;100.00
71476;BME280;59286;59.274;17.974;2023-01-09T15:10:31;99861.31;;;4.17;100.00